Time;durP1;ratioP1;P1;durP2;ratioP2;P2;SDS_P1;SDS_P2;PMS_P1;PMS_P2;Temp;Humidity;BMP_temperature;BMP_pressure;BME280_temperature;BME280_humidity;BME280_pressure;Samples;Min_cycle;Max_cycle;Signal;HPM_P1;HPM_P2
2023/10/16 00:00:45;;;;;;;25.50;7.35;;;21.60;77.80;;;;;;6276866;22;19991;-69
2023/10/16 00:03:15;;;;;;;24.85;7.18;;;21.60;77.20;;;;;;6276426;22;20023;-70
2023/10/16 00:05:49;;;;;;;19.77;6.72;;;21.60;77.60;;;;;;6276198;22;20472;-69
2023/10/16 00:08:16;;;;;;;28.92;7.30;;;21.60;77.50;;;;;;6276573;22;20007;-70
2023/10/16 00:11:05;;;;;;;21.48;6.88;;;21.60;77.20;;;;;;6251044;22;20115;-69
2023/10/16 00:13:35;;;;;;;23.08;7.20;;;21.50;77.20;;;;;;6246044;23;20111;-70
2023/10/16 00:16:02;;;;;;;20.92;6.60;;;21.50;77.20;;;;;;6245541;23;20430;-68
2023/10/16 00:18:33;;;;;;;28.73;6.82;;;21.50;77.20;;;;;;6246088;23;20000;-68
2023/10/16 00:21:02;;;;;;;20.02;7.25;;;21.50;77.00;;;;;;6245833;23;20492;-69
2023/10/16 00:23:30;;;;;;;23.35;6.60;;;21.40;77.00;;;;;;6245739;23;20385;-69
2023/10/16 00:25:58;;;;;;;25.67;6.80;;;21.40;77.20;;;;;;6245148;23;20008;-69
2023/10/16 00:28:24;;;;;;;24.00;6.28;;;21.40;77.20;;;;;;6245847;23;20111;-69
2023/10/16 00:30:51;;;;;;;17.27;6.65;;;21.40;77.20;;;;;;6245895;23;20099;-69
2023/10/16 00:33:17;;;;;;;23.65;6.90;;;21.40;76.90;;;;;;6245877;23;20453;-69
2023/10/16 00:35:45;;;;;;;26.80;6.93;;;21.40;77.20;;;;;;6246012;23;20091;-69
2023/10/16 00:38:14;;;;;;;19.13;6.10;;;21.40;77.10;;;;;;6245953;23;20022;-69
2023/10/16 00:40:51;;;;;;;19.85;6.38;;;21.40;77.20;;;;;;6245643;23;20000;-70
2023/10/16 00:43:20;;;;;;;21.63;6.28;;;21.40;77.00;;;;;;6242918;23;20019;-69
2023/10/16 00:46:06;;;;;;;22.63;6.55;;;21.30;77.20;;;;;;6243149;23;20015;-70
2023/10/16 00:48:34;;;;;;;28.23;6.90;;;21.20;78.10;;;;;;6245238;23;20434;-69
2023/10/16 00:51:08;;;;;;;21.98;6.57;;;21.10;77.70;;;;;;6217493;23;20000;-68
2023/10/16 00:53:35;;;;;;;21.65;6.10;;;21.10;77.80;;;;;;6234833;23;20006;-69
2023/10/16 00:56:08;;;;;;;26.95;5.93;;;21.00;78.00;;;;;;6245771;23;20023;-69
2023/10/16 00:58:36;;;;;;;20.98;6.00;;;21.00;77.90;;;;;;6245733;23;20020;-69
2023/10/16 01:01:12;;;;;;;18.65;5.90;;;21.00;78.10;;;;;;6245316;23;20358;-69
2023/10/16 01:03:40;;;;;;;25.40;6.03;;;20.90;78.30;;;;;;6245522;23;20091;-69
2023/10/16 01:06:21;;;;;;;19.52;5.70;;;20.90;78.10;;;;;;6245511;23;20082;-67
2023/10/16 01:08:49;;;;;;;18.55;4.65;;;20.80;79.20;;;;;;6245685;23;20008;-70
2023/10/16 01:11:18;;;;;;;25.20;5.40;;;20.80;78.40;;;;;;6245390;23;20493;-69
2023/10/16 01:13:48;;;;;;;21.02;4.82;;;20.80;78.30;;;;;;6245546;23;20082;-69
2023/10/16 01:16:20;;;;;;;15.15;4.55;;;20.90;78.40;;;;;;6245397;23;20004;-69
2023/10/16 01:18:46;;;;;;;18.92;4.38;;;20.80;78.50;;;;;;6245301;23;20007;-69
2023/10/16 01:21:14;;;;;;;17.52;5.05;;;20.70;78.60;;;;;;6245411;23;20004;-69
2023/10/16 01:23:43;;;;;;;16.33;4.57;;;20.70;78.70;;;;;;6245146;23;20381;-69
2023/10/16 01:26:13;;;;;;;19.90;6.10;;;20.70;78.80;;;;;;6245203;23;20007;-70
2023/10/16 01:28:39;;;;;;;17.00;5.00;;;20.70;79.00;;;;;;6245041;23;20000;-69
2023/10/16 01:31:05;;;;;;;22.58;4.93;;;20.70;79.00;;;;;;6244656;23;20000;-69
2023/10/16 01:33:30;;;;;;;17.25;5.00;;;20.60;79.00;;;;;;6245083;23;20032;-69
2023/10/16 01:35:56;;;;;;;17.92;4.97;;;20.60;78.90;;;;;;6245058;23;20366;-69
2023/10/16 01:38:24;;;;;;;15.77;4.47;;;20.70;79.20;;;;;;6244907;23;20008;-70
2023/10/16 01:41:09;;;;;;;17.33;4.93;;;20.70;78.90;;;;;;6218108;23;20039;-70
2023/10/16 01:43:36;;;;;;;12.75;4.40;;;20.70;78.70;;;;;;6244846;23;20008;-68
2023/10/16 01:46:13;;;;;;;17.67;5.20;;;20.70;79.00;;;;;;6244768;23;20275;-69
2023/10/16 01:48:44;;;;;;;20.40;5.50;;;20.70;79.20;;;;;;6244995;23;20087;-70
2023/10/16 01:51:11;;;;;;;17.90;5.03;;;20.70;79.10;;;;;;6244919;23;20085;-69
2023/10/16 01:53:39;;;;;;;15.70;4.93;;;20.70;79.10;;;;;;6244867;23;20075;-69
2023/10/16 01:56:13;;;;;;;21.10;4.50;;;20.70;79.10;;;;;;6245016;23;20004;-67
2023/10/16 01:58:49;;;;;;;18.75;4.60;;;20.70;78.90;;;;;;6244962;23;20000;-70
2023/10/16 02:01:17;;;;;;;17.88;4.38;;;20.70;79.10;;;;;;6244786;23;20054;-69
2023/10/16 02:03:47;;;;;;;18.52;4.65;;;20.70;79.00;;;;;;6244468;23;20012;-68
2023/10/16 02:06:20;;;;;;;17.58;4.43;;;20.70;79.00;;;;;;6244879;23;19996;-69
2023/10/16 02:08:47;;;;;;;17.92;4.20;;;20.60;79.60;;;;;;6245053;23;20342;-69
2023/10/16 02:11:13;;;;;;;16.88;4.15;;;20.70;78.90;;;;;;6245001;23;20019;-69
2023/10/16 02:13:43;;;;;;;15.65;4.05;;;20.60;78.90;;;;;;6244856;23;20329;-69
2023/10/16 02:16:12;;;;;;;13.30;4.28;;;20.60;78.80;;;;;;6244727;23;20043;-70
2023/10/16 02:18:41;;;;;;;13.00;4.32;;;20.60;78.80;;;;;;6244819;23;20004;-69
2023/10/16 02:21:13;;;;;;;14.25;3.67;;;20.60;79.30;;;;;;6244708;23;20011;-68
2023/10/16 02:23:40;;;;;;;14.90;4.07;;;20.60;78.70;;;;;;6244555;23;20018;-69
2023/10/16 02:26:07;;;;;;;19.33;4.18;;;20.50;78.70;;;;;;6244698;23;20000;-69
2023/10/16 02:28:33;;;;;;;17.42;4.68;;;20.50;78.80;;;;;;6244595;23;20000;-69
2023/10/16 02:31:13;;;;;;;13.95;4.43;;;20.50;79.50;;;;;;6244565;23;20429;-69
2023/10/16 02:33:50;;;;;;;14.63;3.83;;;20.50;78.90;;;;;;6244558;23;20173;-68
2023/10/16 02:36:18;;;;;;;13.75;4.07;;;20.50;78.80;;;;;;6244451;23;20011;-69
2023/10/16 02:38:44;;;;;;;18.40;3.83;;;20.50;78.90;;;;;;6244547;23;20438;-68
2023/10/16 02:41:10;;;;;;;12.85;4.10;;;20.50;78.80;;;;;;6244314;23;20066;-70
2023/10/16 02:43:37;;;;;;;18.60;4.45;;;20.50;79.20;;;;;;6244049;23;20023;-68
2023/10/16 02:46:04;;;;;;;13.43;3.40;;;20.50;79.10;;;;;;6245054;23;20009;-69
2023/10/16 02:48:30;;;;;;;14.73;4.00;;;20.60;79.10;;;;;;6244573;23;20422;-70
2023/10/16 02:50:59;;;;;;;16.50;4.50;;;20.60;79.00;;;;;;6217632;23;20019;-68
2023/10/16 02:53:27;;;;;;;15.45;3.80;;;20.60;79.10;;;;;;6244457;23;20058;-68
2023/10/16 02:55:58;;;;;;;12.10;3.80;;;20.70;79.00;;;;;;6244076;23;20111;-68
2023/10/16 02:58:28;;;;;;;12.68;4.63;;;20.70;79.50;;;;;;6244289;23;20000;-69
2023/10/16 03:00:59;;;;;;;14.18;3.47;;;20.60;78.80;;;;;;6217690;23;20015;-69
2023/10/16 03:03:26;;;;;;;12.57;3.75;;;20.70;78.80;;;;;;6244581;23;20035;-69
2023/10/16 03:05:58;;;;;;;19.10;4.15;;;20.60;78.90;;;;;;6244056;23;20372;-69
2023/10/16 03:08:30;;;;;;;14.07;3.90;;;20.60;78.90;;;;;;6244098;23;20008;-69
2023/10/16 03:11:00;;;;;;;15.85;3.65;;;20.50;78.90;;;;;;6243978;23;20016;-68
2023/10/16 03:13:26;;;;;;;14.07;4.47;;;20.60;78.80;;;;;;6244073;23;20058;-69
2023/10/16 03:16:37;;;;;;;16.08;4.18;;;20.60;78.70;;;;;;6244107;23;20001;-70
2023/10/16 03:18:43;;;;;;;15.13;4.00;;;20.50;78.60;;;;;;6228334;23;20005;-69
2023/10/16 03:23:47;;;;;;;14.45;4.00;;;20.50;78.90;;;;;;6245660;23;20016;-68
2023/10/16 03:26:30;;;;;;;15.88;4.15;;;20.50;78.40;;;;;;6243856;23;19996;-70
2023/10/16 03:28:57;;;;;;;14.10;3.80;;;20.50;78.40;;;;;;6217181;23;20015;-69
2023/10/16 03:31:23;;;;;;;19.08;4.43;;;20.60;78.30;;;;;;6244063;23;20004;-69
2023/10/16 03:33:54;;;;;;;12.93;3.63;;;20.50;78.00;;;;;;6244133;23;20385;-70
2023/10/16 03:36:21;;;;;;;13.02;4.07;;;20.50;78.90;;;;;;6244237;23;20432;-69
2023/10/16 03:38:47;;;;;;;17.77;4.32;;;20.50;78.20;;;;;;6244158;23;20000;-69
2023/10/16 03:44:07;;;;;;;16.73;4.00;;;20.40;78.50;;;;;;6244817;23;20016;-69
2023/10/16 03:46:33;;;;;;;13.63;3.20;;;20.40;78.20;;;;;;6244021;23;20062;-68
2023/10/16 03:49:00;;;;;;;14.10;3.60;;;20.40;78.20;;;;;;6244014;23;20000;-68
2023/10/16 03:51:26;;;;;;;16.80;4.28;;;20.40;78.20;;;;;;6244155;23;20076;-69
2023/10/16 03:53:56;;;;;;;18.98;4.18;;;20.40;78.20;;;;;;6244479;23;20046;-68
2023/10/16 03:56:22;;;;;;;15.05;3.78;;;20.40;78.40;;;;;;6246012;23;20050;-69
2023/10/16 03:58:49;;;;;;;12.00;3.67;;;20.30;78.10;;;;;;6219165;23;20061;-70
2023/10/16 04:01:23;;;;;;;16.05;4.85;;;20.30;78.20;;;;;;6245806;23;20377;-69
2023/10/16 04:03:58;;;;;;;14.82;4.13;;;20.40;78.50;;;;;;6245822;23;20020;-69
2023/10/16 04:06:26;;;;;;;13.25;3.58;;;20.40;78.50;;;;;;6246169;23;20003;-68
2023/10/16 04:08:59;;;;;;;13.27;3.67;;;20.40;77.90;;;;;;6245892;22;20000;-67
2023/10/16 04:11:25;;;;;;;;;;;20.40;77.90;;;;;;6246651;23;20007;-69
2023/10/16 04:13:54;;;;;;;16.58;4.38;;;20.40;78.40;;;;;;6246080;23;19900;-70
2023/10/16 04:16:43;;;;;;;14.90;4.53;;;20.50;78.40;;;;;;6245966;23;20000;-69
2023/10/16 04:21:45;;;;;;;18.27;4.13;;;20.50;78.40;;;;;;6247334;23;20338;-69
2023/10/16 04:26:57;;;;;;;14.60;4.07;;;20.50;77.90;;;;;;6246646;23;20026;-69
2023/10/16 04:29:26;;;;;;;14.80;4.13;;;20.50;77.80;;;;;;6245755;23;20008;-69
2023/10/16 04:31:55;;;;;;;16.15;4.65;;;20.50;78.10;;;;;;6245929;23;20098;-69
2023/10/16 04:36:52;;;;;;;12.65;4.07;;;20.50;78.00;;;;;;6245860;23;20012;-69
2023/10/16 04:45:00;;;;;;;15.15;3.88;;;20.40;78.10;;;;;;6245716;23;20015;-67
2023/10/16 04:47:28;;;;;;;14.27;4.90;;;20.40;78.20;;;;;;6218460;23;20052;-69
2023/10/16 04:50:06;;;;;;;16.10;4.35;;;20.40;78.10;;;;;;6219442;23;20012;-70
2023/10/16 04:55:52;;;;;;;17.08;4.30;;;20.40;78.40;;;;;;6245528;23;20065;-68
2023/10/16 05:03:23;;;;;;;11.45;4.03;;;20.30;78.50;;;;;;6245580;23;20020;-69
2023/10/16 05:11:27;;;;;;;16.23;4.25;;;20.30;78.40;;;;;;6245428;23;20027;-70
2023/10/16 05:14:19;;;;;;;19.30;4.88;;;20.30;78.90;;;;;;6245238;23;20434;-70
2023/10/16 05:19:43;;;;;;;15.73;4.95;;;20.30;79.20;;;;;;6245537;23;20018;-70
2023/10/16 06:14:13;;;;;;;13.25;4.25;;;19.90;79.80;;;;;;6245693;23;20115;-80
2023/10/16 06:16:55;;;;;;;18.20;4.32;;;19.90;79.60;;;;;;6245498;23;20000;-80
2023/10/16 06:19:22;;;;;;;14.80;4.50;;;19.90;79.90;;;;;;6245170;23;20022;-81
2023/10/16 06:22:06;;;;;;;14.05;4.70;;;19.90;79.50;;;;;;6245429;23;20330;-79
2023/10/16 06:24:47;;;;;;;17.20;4.88;;;20.00;79.40;;;;;;6247116;23;20000;-80
2023/10/16 06:27:19;;;;;;;16.00;4.68;;;20.10;79.70;;;;;;6246134;23;20004;-78
2023/10/16 06:29:55;;;;;;;20.02;4.85;;;20.20;78.80;;;;;;6245515;23;20079;-80
2023/10/16 06:32:25;;;;;;;21.02;5.07;;;20.30;78.60;;;;;;6245259;23;20015;-79
2023/10/16 06:34:57;;;;;;;17.58;5.95;;;20.40;78.40;;;;;;6244084;23;20044;-78
2023/10/16 06:37:24;;;;;;;20.88;5.60;;;20.40;78.70;;;;;;6247070;23;20079;-83
2023/10/16 06:39:58;;;;;;;19.42;5.75;;;20.50;78.00;;;;;;6245736;23;19997;-79
2023/10/16 06:42:24;;;;;;;17.10;4.78;;;20.50;78.00;;;;;;6245423;23;20039;-80
2023/10/16 06:44:54;;;;;;;20.50;4.85;;;20.60;77.80;;;;;;6245402;23;20000;-80
2023/10/16 06:47:34;;;;;;;20.95;5.57;;;20.60;77.90;;;;;;6247137;23;20048;-85
2023/10/16 06:50:01;;;;;;;20.13;5.32;;;20.70;77.60;;;;;;6246474;23;20000;-84
2023/10/16 06:52:27;;;;;;;22.42;6.22;;;20.80;77.00;;;;;;6247133;23;20011;-83
2023/10/16 06:54:52;;;;;;;17.27;5.53;;;20.80;77.00;;;;;;6247613;23;20000;-85
2023/10/16 06:57:19;;;;;;;20.58;4.97;;;20.80;77.00;;;;;;6218710;23;20012;-81
2023/10/16 06:59:45;;;;;;;16.05;5.38;;;20.80;76.80;;;;;;6246572;23;20080;-81
2023/10/16 07:02:19;;;;;;;18.75;5.18;;;20.80;76.70;;;;;;6245703;23;20075;-80
2023/10/16 07:04:47;;;;;;;12.65;4.93;;;20.80;76.50;;;;;;6219312;23;20648;-78
2023/10/16 07:07:16;;;;;;;14.32;4.28;;;20.80;76.30;;;;;;6246819;23;20082;-84
2023/10/16 07:09:49;;;;;;;20.88;5.57;;;20.80;76.50;;;;;;6246395;22;20016;-84
2023/10/16 07:12:18;;;;;;;15.70;5.00;;;20.90;77.30;;;;;;6246697;23;20431;-83
2023/10/16 07:15:01;;;;;;;21.02;5.20;;;20.90;77.10;;;;;;6246484;23;20363;-85
2023/10/16 07:17:30;;;;;;;15.95;6.35;;;21.00;77.00;;;;;;6246319;23;20008;-83
2023/10/16 07:19:59;;;;;;;17.33;4.70;;;21.00;76.40;;;;;;6247567;23;20009;-85
2023/10/16 07:22:31;;;;;;;17.60;4.40;;;21.00;76.30;;;;;;6245885;23;20139;-84
2023/10/16 07:25:25;;;;;;;19.92;5.07;;;20.90;76.50;;;;;;6244486;23;20027;-75
2023/10/16 07:27:58;;;;;;;19.48;4.90;;;21.00;76.60;;;;;;6212277;23;20027;-75
2023/10/16 07:30:25;;;;;;;13.20;4.60;;;21.00;76.40;;;;;;6244979;23;20004;-77
2023/10/16 07:32:52;;;;;;;19.52;4.80;;;21.00;76.20;;;;;;6242974;23;20026;-74
2023/10/16 07:35:21;;;;;;;17.67;4.72;;;21.00;75.70;;;;;;6246310;23;20011;-76
2023/10/16 07:37:48;;;;;;;17.65;5.72;;;21.00;75.90;;;;;;6246356;23;20385;-74
2023/10/16 07:40:20;;;;;;;16.08;4.45;;;21.10;75.80;;;;;;6245664;23;20004;-75
2023/10/16 07:42:49;;;;;;;17.10;4.88;;;21.10;75.80;;;;;;6245592;23;20019;-76
2023/10/16 07:45:15;;;;;;;23.60;5.20;;;21.20;76.20;;;;;;6245836;23;20043;-75
2023/10/16 07:47:41;;;;;;;23.58;5.50;;;21.20;75.50;;;;;;6245825;23;20070;-75
2023/10/16 07:50:11;;;;;;;16.25;5.05;;;21.30;75.50;;;;;;6245739;23;20000;-76
2023/10/16 07:52:37;;;;;;;13.75;4.93;;;21.30;75.50;;;;;;6245922;23;20016;-73
2023/10/16 07:55:03;;;;;;;17.83;5.28;;;21.40;75.50;;;;;;6245279;23;20754;-74
2023/10/16 07:57:32;;;;;;;17.90;5.20;;;21.40;75.40;;;;;;6245216;23;20413;-75
2023/10/16 08:00:07;;;;;;;17.75;5.30;;;21.40;75.30;;;;;;6245562;23;20075;-74
2023/10/16 08:02:33;;;;;;;20.00;5.10;;;21.40;75.20;;;;;;6245992;23;20458;-76
2023/10/16 08:05:03;;;;;;;23.13;5.93;;;21.50;75.10;;;;;;6245558;23;20075;-75
2023/10/16 08:10:43;;;;;;;21.02;5.30;;;21.60;75.40;;;;;;6226447;23;20039;-74
2023/10/16 08:13:11;;;;;;;15.32;5.65;;;21.60;75.20;;;;;;6245552;23;20012;-74
2023/10/16 08:15:51;;;;;;;14.10;5.50;;;21.70;75.20;;;;;;6246154;23;20303;-74
2023/10/16 08:18:18;;;;;;;15.88;5.57;;;21.80;75.30;;;;;;6246371;23;20072;-77
2023/10/16 08:21:00;;;;;;;17.38;5.82;;;21.70;75.10;;;;;;6246306;23;20031;-75
2023/10/16 08:23:34;;;;;;;14.98;5.88;;;21.80;74.80;;;;;;6245607;23;20020;-76
2023/10/16 08:26:04;;;;;;;15.10;5.57;;;21.90;74.60;;;;;;6245591;23;20000;-74
2023/10/16 08:28:41;;;;;;;19.40;5.90;;;22.00;74.60;;;;;;6246035;23;20012;-75
2023/10/16 08:31:22;;;;;;;15.38;5.40;;;22.00;74.40;;;;;;6245644;23;20058;-76
2023/10/16 08:33:54;;;;;;;17.60;6.20;;;22.10;74.60;;;;;;6245670;23;20074;-75
2023/10/16 08:36:20;;;;;;;14.75;5.88;;;22.10;74.00;;;;;;6245380;23;20075;-74
2023/10/16 08:38:53;;;;;;;19.55;6.43;;;22.20;74.10;;;;;;6245662;23;20390;-75
2023/10/16 08:41:32;;;;;;;19.75;5.85;;;22.20;74.00;;;;;;6245263;23;20004;-74
2023/10/16 08:44:04;;;;;;;19.90;5.80;;;22.30;73.60;;;;;;6246092;23;20012;-74
2023/10/16 08:46:31;;;;;;;16.98;6.15;;;22.40;74.00;;;;;;6245644;23;20011;-73
2023/10/16 08:48:57;;;;;;;14.70;5.88;;;22.50;73.20;;;;;;6245916;23;20057;-74
2023/10/16 08:51:25;;;;;;;20.33;6.45;;;22.60;73.30;;;;;;6245740;23;20000;-73
2023/10/16 08:53:58;;;;;;;20.00;6.47;;;22.70;72.80;;;;;;6245539;23;20062;-73
2023/10/16 08:56:24;;;;;;;;;;;22.70;72.50;;;;;;6245828;23;20004;-76
2023/10/16 08:58:55;;;;;;;19.08;6.63;;;22.80;72.60;;;;;;6244982;23;19899;-73
2023/10/16 09:01:20;;;;;;;22.60;6.63;;;22.80;72.10;;;;;;6245426;23;20087;-74
2023/10/16 09:04:14;;;;;;;21.50;7.13;;;22.80;72.20;;;;;;6244870;23;20040;-74
2023/10/16 09:06:39;;;;;;;23.58;7.30;;;22.90;72.10;;;;;;6210896;23;20008;-74
2023/10/16 09:09:13;;;;;;;19.90;6.45;;;22.90;72.10;;;;;;6245035;23;20087;-74
2023/10/16 09:11:41;;;;;;;;;;;23.00;71.80;;;;;;6245807;23;20016;-73
2023/10/16 09:14:13;;;;;;;20.45;6.03;;;23.10;71.70;;;;;;6245409;23;20232;-73
2023/10/16 09:16:43;;;;;;;16.40;6.53;;;23.10;71.60;;;;;;6245546;23;20094;-72
2023/10/16 09:19:13;;;;;;;22.55;7.53;;;23.10;71.40;;;;;;6245384;23;20075;-74
2023/10/16 09:21:43;;;;;;;21.52;6.63;;;23.20;71.40;;;;;;6245105;23;20004;-73
2023/10/16 09:24:11;;;;;;;18.60;6.35;;;23.20;70.80;;;;;;6245252;23;20023;-72
2023/10/16 09:26:44;;;;;;;17.90;6.05;;;23.30;71.20;;;;;;6244980;23;20042;-72
2023/10/16 09:29:14;;;;;;;16.92;4.95;;;23.30;71.00;;;;;;6244570;23;20337;-74
2023/10/16 09:31:47;;;;;;;21.27;5.65;;;23.40;71.20;;;;;;6244046;23;19996;-73
2023/10/16 09:34:17;;;;;;;19.88;5.28;;;23.40;70.40;;;;;;6245522;23;20000;-74
2023/10/16 09:39:35;;;;;;;20.35;5.78;;;23.40;70.40;;;;;;6243756;23;20097;-74
2023/10/16 09:42:15;;;;;;;18.60;4.90;;;23.50;70.70;;;;;;6244874;23;20377;-71
2023/10/16 09:44:56;;;;;;;21.20;5.10;;;23.50;70.30;;;;;;6244590;23;19999;-74
2023/10/16 09:47:26;;;;;;;14.25;4.88;;;23.50;70.30;;;;;;6244649;23;20011;-74
2023/10/16 09:49:54;;;;;;;12.80;4.47;;;23.50;70.50;;;;;;6244857;23;20012;-73
2023/10/16 09:52:22;;;;;;;18.08;4.70;;;23.40;70.60;;;;;;6244203;23;20001;-73
2023/10/16 09:54:48;;;;;;;17.02;4.90;;;23.40;70.70;;;;;;6217753;23;20087;-74
2023/10/16 09:57:22;;;;;;;11.10;4.05;;;23.40;70.90;;;;;;6244710;23;20004;-74
2023/10/16 09:59:54;;;;;;;12.35;5.32;;;23.30;71.10;;;;;;6244635;23;20073;-74
2023/10/16 10:02:35;;;;;;;8.65;4.05;;;23.30;71.40;;;;;;6244434;23;20011;-74
2023/10/16 10:05:15;;;;;;;16.45;5.40;;;23.30;71.70;;;;;;6244638;23;20011;-73
2023/10/16 10:07:47;;;;;;;14.18;4.88;;;23.30;72.10;;;;;;6244429;23;20067;-74
2023/10/16 10:13:10;;;;;;;17.38;5.13;;;23.30;72.70;;;;;;6245656;23;20170;-74
2023/10/16 10:15:44;;;;;;;13.57;4.70;;;23.40;73.30;;;;;;6244367;23;20000;-75
2023/10/16 10:18:32;;;;;;;22.70;6.03;;;23.40;73.30;;;;;;6244909;23;20012;-74
2023/10/16 10:21:11;;;;;;;15.80;5.68;;;23.40;73.40;;;;;;6245074;23;20515;-74
2023/10/16 10:23:37;;;;;;;20.77;5.65;;;23.50;73.70;;;;;;6244479;23;20079;-74
2023/10/16 10:26:07;;;;;;;14.43;5.03;;;23.50;73.60;;;;;;6244822;23;20000;-74
2023/10/16 10:28:40;;;;;;;17.08;5.03;;;23.50;73.90;;;;;;6244750;23;20000;-73
2023/10/16 10:31:07;;;;;;;;;;;23.60;73.90;;;;;;6244995;23;20080;-73
2023/10/16 10:33:42;;;;;;;12.63;5.07;;;23.60;73.50;;;;;;6243142;23;19900;-75
2023/10/16 10:36:43;;;;;;;18.08;5.13;;;23.60;73.80;;;;;;6243683;23;20079;-72
2023/10/16 10:39:21;;;;;;;15.68;5.03;;;23.60;73.90;;;;;;6243890;23;20008;-75
2023/10/16 10:41:48;;;;;;;17.77;5.22;;;23.60;73.40;;;;;;6244805;23;20426;-75
2023/10/16 10:44:15;;;;;;;12.63;4.43;;;23.60;73.20;;;;;;6244304;23;20415;-74
2023/10/16 10:46:49;;;;;;;16.55;5.35;;;23.60;73.20;;;;;;6244405;23;20000;-74
2023/10/16 10:49:16;;;;;;;15.70;6.45;;;23.60;72.90;;;;;;6243866;23;20028;-78
2023/10/16 10:51:44;;;;;;;15.95;6.82;;;23.70;72.80;;;;;;6245629;23;20000;-80
2023/10/16 10:54:13;;;;;;;16.60;6.80;;;23.70;72.70;;;;;;6246016;23;20334;-83
2023/10/16 10:56:53;;;;;;;16.23;6.93;;;23.70;73.20;;;;;;6246068;23;20004;-78
2023/10/16 11:05:08;;;;;;;13.20;4.80;;;23.70;73.10;;;;;;6234067;23;20011;-85
2023/10/16 11:10:27;;;;;;;15.63;5.78;;;23.70;73.00;;;;;;6205659;23;20027;-83
2023/10/16 11:13:03;;;;;;;18.85;5.47;;;23.70;74.10;;;;;;6247782;23;20006;-82
2023/10/16 11:15:30;;;;;;;11.65;4.78;;;23.70;73.80;;;;;;6247602;23;20031;-82
2023/10/16 11:18:05;;;;;;;14.75;5.05;;;23.60;74.00;;;;;;6247749;23;20035;-83
2023/10/16 11:20:33;;;;;;;12.63;4.45;;;23.60;73.90;;;;;;6247693;23;20004;-83
2023/10/16 11:22:58;;;;;;;15.38;4.38;;;23.60;74.50;;;;;;6247204;23;20093;-82
2023/10/16 11:25:31;;;;;;;15.05;4.88;;;23.70;74.60;;;;;;6247000;23;20078;-83
2023/10/16 11:28:07;;;;;;;19.98;5.30;;;23.60;74.50;;;;;;6247083;23;20437;-84
2023/10/16 11:30:38;;;;;;;13.35;5.18;;;23.60;75.10;;;;;;6247679;23;20035;-82
2023/10/16 11:33:04;;;;;;;12.90;4.68;;;23.50;74.80;;;;;;6246342;23;20110;-80
2023/10/16 11:35:34;;;;;;;14.18;4.93;;;23.50;75.00;;;;;;6247890;23;20001;-79
2023/10/16 11:38:04;;;;;;;18.80;4.72;;;23.50;75.10;;;;;;6246643;23;20088;-80
2023/10/16 11:40:39;;;;;;;13.48;5.53;;;23.50;75.40;;;;;;6246652;23;20075;-71
2023/10/16 11:43:07;;;;;;;14.68;5.07;;;23.50;76.20;;;;;;6245430;23;20016;-77
2023/10/16 11:45:33;;;;;;;16.48;5.78;;;23.40;77.80;;;;;;6245763;23;20445;-77
2023/10/16 11:50:52;;;;;;;15.75;6.00;;;23.40;76.60;;;;;;6245949;23;20020;-79
2023/10/16 11:53:23;;;;;;;15.30;5.82;;;23.40;77.50;;;;;;6218718;23;20009;-76
